This is the latest recevied weather packets stored in our database for station/object HS3PIK-2. If no packets are shown the sender has not sent any weather packets the latest 10 day(s).
| Time | Temp. | Humidity | Pressure | Rain* | Wind** | Luminosity | Snow |
|---|---|---|---|---|---|---|---|
| 1777876805 | 33.89° C | 64% | - | - | - | 0 W/m² | - |
| 1777876478 | 34.44° C | 59% | - | - | - | 0 W/m² | - |
| 1777876150 | 35° C | 59% | - | - | - | 0 W/m² | - |
| 1777875825 | 35.56° C | 60% | - | - | - | 0 W/m² | - |
| 1777875495 | 36.67° C | 58% | - | - | - | 0 W/m² | - |
| 1777875165 | 37.22° C | 55% | - | - | - | 0 W/m² | - |
| 1777874835 | 37.22° C | 55% | - | - | - | 0 W/m² | - |
| 1777874508 | 37.22° C | 55% | - | - | - | 0 W/m² | - |
| 1777874183 | 37.78° C | 54% | - | - | - | 0 W/m² | - |
| 1777873853 | 37.78° C | 54% | - | - | - | 0 W/m² | - |
| 1777873528 | 37.22° C | 55% | - | - | - | 0 W/m² | - |
| 1777873203 | 37.78° C | 53% | - | - | - | 0 W/m² | - |
| 1777872876 | 37.78° C | 55% | - | - | - | 0 W/m² | - |
| 1777872548 | 37.22° C | 58% | - | - | - | 0 W/m² | - |
| 1777872221 | 37.22° C | 56% | - | - | - | 0 W/m² | - |
| 1777871893 | 36.67° C | 56% | - | - | - | 0 W/m² | - |
| 1777871568 | 36.11° C | 57% | - | - | - | 0 W/m² | - |
| 1777871241 | 36.67° C | 57% | - | - | - | 0 W/m² | - |
| 1777870912 | 36.67° C | 57% | - | - | - | 0 W/m² | - |
| 1777870586 | 36.11° C | 58% | - | - | - | 0 W/m² | - |
| 1777870261 | 35.56° C | 59% | - | - | - | 0 W/m² | - |
| 1777869931 | 35.56° C | 58% | - | - | - | 0 W/m² | - |
| 1777869601 | 35.56° C | 61% | - | - | - | 0 W/m² | - |
| 1777869455 | 35.56° C | 59% | - | - | - | 0 W/m² | - |
| 1777869127 | 35.56° C | 61% | - | - | - | 0 W/m² | - |
* Rain since midnight (hover to see other rain measurements)
** Current wind speed in m/s (hover to see current wind gust speed)